Time;durP1;ratioP1;P1;durP2;ratioP2;P2;SDS_P1;SDS_P2;PMS_P1;PMS_P2;Temp;Humidity;BMP_temperature;BMP_pressure;BME280_temperature;BME280_humidity;BME280_pressure;Samples;Min_cycle;Max_cycle;Signal;HPM_P1;HPM_P2
2022/01/21 00:04:38;;;;;;;;;;;;;;;21.81;25.18;96561.19;10433372;28;1910;-73
2022/01/21 00:09:40;;;;;;;;;;;;;;;21.79;25.18;96553.53;10418878;28;1835;-73
2022/01/21 00:14:40;;;;;;;;;;;;;;;21.78;25.40;96535.31;10434351;28;1789;-73
2022/01/21 00:19:44;;;;;;;;;;;;;;;21.77;24.88;96552.19;10426026;28;1830;-73
2022/01/21 00:35:05;;;;;;;;;;;;;;;21.77;25.52;96573.31;10421914;28;1843;-74
2022/01/21 00:40:06;;;;;;;;;;;;;;;21.75;25.34;96554.31;10417815;28;1996;-74
2022/01/21 00:45:11;;;;;;;;;;;;;;;21.72;25.80;96560.13;10431098;28;1824;-73
2022/01/21 00:50:12;;;;;;;;;;;;;;;21.69;25.70;96569.34;10433538;28;1887;-72
2022/01/21 00:55:12;;;;;;;;;;;;;;;21.69;25.18;96569.34;10433870;28;1814;-73
2022/01/21 01:00:13;;;;;;;;;;;;;;;21.71;25.41;96571.72;10434976;28;1961;-74
2022/01/21 01:05:13;;;;;;;;;;;;;;;21.69;25.63;96571.19;10434130;28;1934;-74
2022/01/21 01:10:21;;;;;;;;;;;;;;;21.70;25.47;96585.97;10430675;28;1716;-73
2022/01/21 01:20:40;;;;;;;;;;;;;;;21.67;25.55;96583.84;10416335;28;1894;-73
2022/01/21 01:31:00;;;;;;;;;;;;;;;21.64;25.58;96587.00;10438314;28;1976;-74
2022/01/21 01:36:01;;;;;;;;;;;;;;;21.66;25.83;96595.44;10436528;28;1823;-74
2022/01/21 01:41:07;;;;;;;;;;;;;;;21.67;25.77;96595.19;10409735;28;1965;-74
2022/01/21 01:51:27;;;;;;;;;;;;;;;21.63;25.65;96609.16;10429364;22;2090;-50
2022/01/21 01:56:29;;;;;;;;;;;;;;;21.61;26.13;96614.72;10432917;28;1853;-50
2022/01/21 02:01:30;;;;;;;;;;;;;;;21.61;25.85;96620.00;10388782;28;1996;-50
2022/01/21 02:06:30;;;;;;;;;;;;;;;21.60;26.16;96610.47;10390398;28;1842;-51
2022/01/21 02:11:31;;;;;;;;;;;;;;;21.60;25.71;96607.03;10390953;28;1902;-52
2022/01/21 02:16:40;;;;;;;;;;;;;;;21.61;25.80;96600.72;10389067;28;1898;-52
2022/01/21 02:21:43;;;;;;;;;;;;;;;21.61;25.64;96598.09;10385882;28;1910;-50
2022/01/21 02:26:48;;;;;;;;;;;;;;;21.60;26.01;96594.63;10388984;28;1969;-53
2022/01/21 02:31:48;;;;;;;;;;;;;;;21.60;25.86;96593.84;10390426;28;2003;-52
2022/01/21 02:36:49;;;;;;;;;;;;;;;21.60;25.98;96599.91;10385927;28;2165;-49
2022/01/21 02:41:49;;;;;;;;;;;;;;;21.57;26.13;96597.81;10383090;28;1929;-54
2022/01/21 02:46:55;;;;;;;;;;;;;;;21.60;25.84;96596.47;10389356;28;1988;-51
2022/01/21 02:51:57;;;;;;;;;;;;;;;21.58;26.38;96599.38;10381771;28;1937;-52
2022/01/21 02:56:57;;;;;;;;;;;;;;;21.58;26.31;96598.59;10389165;28;1858;-53
2022/01/21 03:01:58;;;;;;;;;;;;;;;21.56;26.00;96601.50;10389010;28;1944;-50
2022/01/21 03:06:58;;;;;;;;;;;;;;;21.58;26.15;96598.59;10394200;28;1943;-53
2022/01/21 03:11:59;;;;;;;;;;;;;;;21.58;26.06;96607.31;10388802;28;1973;-50
2022/01/21 03:16:59;;;;;;;;;;;;;;;21.55;26.23;96613.09;10387180;28;1953;-50
2022/01/21 03:22:01;;;;;;;;;;;;;;;21.52;25.90;96610.97;10386970;28;1921;-53
2022/01/21 03:27:02;;;;;;;;;;;;;;;21.53;26.03;96625.75;10396774;28;1448;-53
2022/01/21 03:32:03;;;;;;;;;;;;;;;21.55;26.14;96636.06;10399965;28;1941;-53
2022/01/21 03:37:03;;;;;;;;;;;;;;;21.54;26.09;96629.97;10396082;28;1938;-51
2022/01/21 03:42:04;;;;;;;;;;;;;;;21.50;26.53;96621.00;10392018;28;2029;-51
2022/01/21 03:47:05;;;;;;;;;;;;;;;21.49;26.18;96629.16;10396879;28;1963;-54
2022/01/21 03:52:05;;;;;;;;;;;;;;;21.51;25.89;96634.97;10392253;28;1902;-52
2022/01/21 03:57:05;;;;;;;;;;;;;;;21.51;25.89;96640.25;10393628;28;2027;-52
2022/01/21 04:02:07;;;;;;;;;;;;;;;21.52;26.10;96636.56;10394363;28;1971;-51
2022/01/21 04:07:07;;;;;;;;;;;;;;;21.49;26.00;96629.16;10389931;28;2001;-52
2022/01/21 04:12:09;;;;;;;;;;;;;;;21.51;26.08;96629.72;10391689;28;1958;-52
2022/01/21 04:17:10;;;;;;;;;;;;;;;21.50;26.12;96636.03;10392271;28;1894;-51
2022/01/21 04:22:10;;;;;;;;;;;;;;;21.52;26.35;96639.19;10392905;28;1906;-50
2022/01/21 04:27:11;;;;;;;;;;;;;;;21.49;26.12;96645.00;10394162;28;1981;-54
2022/01/21 04:32:11;;;;;;;;;;;;;;;21.50;26.30;96638.66;10396734;28;1960;-53
2022/01/21 04:37:13;;;;;;;;;;;;;;;21.50;26.05;96642.09;10396494;28;1957;-51
2022/01/21 04:47:20;;;;;;;;;;;;;;;21.49;26.08;96658.19;10390539;28;1996;-54
2022/01/21 04:52:20;;;;;;;;;;;;;;;21.46;26.13;96648.94;10389684;28;1938;-54
2022/01/21 04:57:20;;;;;;;;;;;;;;;21.47;26.17;96657.66;10390914;28;1957;-52
2022/01/21 05:02:22;;;;;;;;;;;;;;;21.44;26.14;96658.16;10389266;28;1976;-53
2022/01/21 05:07:25;;;;;;;;;;;;;;;21.46;26.29;96669.25;10393279;28;2139;-55
2022/01/21 05:12:27;;;;;;;;;;;;;;;21.45;26.23;96673.72;10387094;28;1956;-52
2022/01/21 05:17:29;;;;;;;;;;;;;;;21.44;26.33;96673.97;10392691;28;1893;-53
2022/01/21 05:22:29;;;;;;;;;;;;;;;21.43;26.31;96680.31;10389330;28;2174;-54
2022/01/21 05:27:30;;;;;;;;;;;;;;;21.43;25.99;96685.59;10387609;28;1840;-54
2022/01/21 05:32:30;;;;;;;;;;;;;;;21.44;26.15;96687.16;10388766;28;1977;-52
2022/01/21 05:37:31;;;;;;;;;;;;;;;21.43;25.93;96693.50;10394897;28;2012;-53
2022/01/21 05:42:34;;;;;;;;;;;;;;;21.44;26.22;96729.38;10393061;28;1914;-50
2022/01/21 05:47:34;;;;;;;;;;;;;;;21.42;26.52;96727.00;10387938;28;1940;-54
2022/01/21 05:52:40;;;;;;;;;;;;;;;21.43;26.76;96735.72;10384403;28;2324;-53
2022/01/21 05:57:40;;;;;;;;;;;;;;;21.43;26.83;96738.34;10385325;28;1832;-51
2022/01/21 06:02:41;;;;;;;;;;;;;;;21.44;26.76;96755.75;10388826;28;1980;-53
2022/01/21 06:07:41;;;;;;;;;;;;;;;21.43;26.68;96754.19;10391713;28;2000;-51
2022/01/21 06:12:42;;;;;;;;;;;;;;;21.44;26.66;96755.75;10383477;28;1880;-50
2022/01/21 06:17:42;;;;;;;;;;;;;;;21.45;26.56;96775.81;10384338;28;1983;-52
2022/01/21 06:22:43;;;;;;;;;;;;;;;21.42;26.48;96773.69;10383610;28;2078;-53
2022/01/21 06:27:45;;;;;;;;;;;;;;;21.42;26.49;96782.38;10386715;28;1913;-54
2022/01/21 06:32:45;;;;;;;;;;;;;;;21.40;26.49;96794.25;10382509;28;2033;-53
2022/01/21 06:37:45;;;;;;;;;;;;;;;21.42;26.51;96789.50;10396396;28;1914;-54
2022/01/21 06:42:52;;;;;;;;;;;;;;;21.36;25.87;96779.97;10378694;28;2175;-51
2022/01/21 06:47:53;;;;;;;;;;;;;;;21.39;26.56;96790.78;10390441;28;2012;-55
2022/01/21 06:52:53;;;;;;;;;;;;;;;21.45;26.28;96796.91;10383306;28;1934;-54
2022/01/21 06:57:53;;;;;;;;;;;;;;;21.38;26.26;96796.34;10386778;28;1984;-52
2022/01/21 07:02:54;;;;;;;;;;;;;;;21.39;26.22;96811.13;10384320;28;1937;-52
2022/01/21 07:07:55;;;;;;;;;;;;;;;21.37;26.07;96806.09;10392885;28;1953;-52
2022/01/21 07:12:57;;;;;;;;;;;;;;;21.35;26.28;96799.50;10400095;28;1846;-53
2022/01/21 07:17:57;;;;;;;;;;;;;;;21.35;26.39;96815.31;10402302;28;1990;-53
2022/01/21 07:22:57;;;;;;;;;;;;;;;21.34;26.39;96830.34;10394963;28;2016;-52
2022/01/21 07:27:58;;;;;;;;;;;;;;;21.35;26.28;96831.91;10392274;28;1867;-54
2022/01/21 07:32:58;;;;;;;;;;;;;;;21.32;26.32;96834.25;10392600;28;1932;-53
2022/01/21 07:37:59;;;;;;;;;;;;;;;21.31;26.04;96841.38;10393067;28;2189;-53
2022/01/21 07:42:59;;;;;;;;;;;;;;;21.31;25.94;96840.59;10387695;28;2047;-52
2022/01/21 07:48:00;;;;;;;;;;;;;;;21.30;26.01;96828.44;10396584;28;2048;-54
2022/01/21 07:53:00;;;;;;;;;;;;;;;21.30;25.59;96842.44;10383089;28;2063;-52
2022/01/21 07:58:01;;;;;;;;;;;;;;;21.31;25.00;96835.34;10384201;28;1950;-51
2022/01/21 08:03:02;;;;;;;;;;;;;;;21.25;25.30;96842.38;10388559;28;1968;-55
2022/01/21 08:08:02;;;;;;;;;;;;;;;21.25;25.43;96847.66;10385151;28;1928;-50
2022/01/21 08:13:03;;;;;;;;;;;;;;;21.25;25.38;96838.94;10389260;28;1934;-51
2022/01/21 08:18:03;;;;;;;;;;;;;;;21.30;25.39;96842.44;10388911;28;2298;-54
2022/01/21 08:23:04;;;;;;;;;;;;;;;21.39;26.02;96832.22;10377845;28;2019;-51
2022/01/21 08:28:04;;;;;;;;;;;;;;;21.44;26.25;96819.06;10377717;28;2208;-55
2022/01/21 08:33:04;;;;;;;;;;;;;;;21.43;26.25;96825.41;10383465;28;1877;-55
2022/01/21 08:38:05;;;;;;;;;;;;;;;21.44;26.03;96837.53;10387268;28;1941;-53
2022/01/21 08:43:05;;;;;;;;;;;;;;;21.44;26.07;96832.25;10382987;28;1942;-50
2022/01/21 08:48:06;;;;;;;;;;;;;;;21.40;26.22;96836.44;10394679;28;1862;-51
2022/01/21 08:53:35;;;;;;;;;;;;;;;21.41;26.12;96836.19;10391173;28;2012;-54
2022/01/21 08:58:27;;;;;;;;;;;;;;;21.41;26.04;96835.41;10388541;28;2027;-53
2022/01/21 09:03:27;;;;;;;;;;;;;;;21.38;25.70;96823.50;10389632;28;2035;-50
2022/01/21 09:08:30;;;;;;;;;;;;;;;21.38;26.12;96836.69;10384059;28;1893;-51
2022/01/21 09:13:32;;;;;;;;;;;;;;;21.42;25.86;96847.53;10419492;23;1938;-72
2022/01/21 09:18:46;;;;;;;;;;;;;;;21.43;26.15;96835.94;10424933;28;2518;-72
2022/01/21 09:23:48;;;;;;;;;;;;;;;21.45;26.07;96837.25;10413316;28;2019;-73
2022/01/21 09:28:49;;;;;;;;;;;;;;;21.45;25.91;96844.41;10405507;28;1929;-72
2022/01/21 09:33:49;;;;;;;;;;;;;;;21.45;25.93;96847.03;10391618;28;2017;-72
2022/01/21 09:38:49;;;;;;;;;;;;;;;21.42;26.14;96844.91;10409248;28;1956;-71
2022/01/21 09:43:53;;;;;;;;;;;;;;;21.38;25.92;96841.16;10409495;28;1983;-72
2022/01/21 09:49:06;;;;;;;;;;;;;;;21.37;26.02;96853.56;10401187;28;1956;-71
2022/01/21 09:54:07;;;;;;;;;;;;;;;21.34;25.89;96861.19;10396995;28;2061;-72
2022/01/21 09:59:07;;;;;;;;;;;;;;;21.36;25.81;96864.38;10407884;28;1905;-71
2022/01/21 10:04:08;;;;;;;;;;;;;;;21.37;26.04;96877.28;10396957;28;1965;-72
2022/01/21 10:09:08;;;;;;;;;;;;;;;21.37;25.87;96876.53;10413158;28;1952;-71
2022/01/21 10:14:08;;;;;;;;;;;;;;;21.37;25.92;96872.03;10390228;28;1942;-72
2022/01/21 10:19:11;;;;;;;;;;;;;;;21.42;25.83;96873.91;10415469;28;1964;-71
2022/01/21 10:24:14;;;;;;;;;;;;;;;21.48;25.64;96876.34;10404967;28;1973;-70
2022/01/21 10:29:14;;;;;;;;;;;;;;;21.51;25.55;96881.13;10413121;28;1968;-71
2022/01/21 10:34:15;;;;;;;;;;;;;;;21.48;25.56;96878.19;10418655;28;1956;-70
2022/01/21 10:39:28;;;;;;;;;;;;;;;21.46;25.65;96877.63;10415150;28;2012;-71
2022/01/21 10:44:30;;;;;;;;;;;;;;;21.49;25.88;96879.78;10383870;28;1950;-72
2022/01/21 10:49:30;;;;;;;;;;;;;;;21.49;25.64;96880.59;10415811;28;1975;-71
2022/01/21 10:54:31;;;;;;;;;;;;;;;21.46;25.62;96886.34;10411575;28;1957;-72
2022/01/21 10:59:44;;;;;;;;;;;;;;;21.47;25.67;96884.50;10418229;28;1968;-71
2022/01/21 11:04:44;;;;;;;;;;;;;;;21.47;25.76;96876.59;10410000;28;1965;-72
2022/01/21 11:09:45;;;;;;;;;;;;;;;21.48;25.69;96873.69;10386531;28;1988;-70
2022/01/21 11:15:05;;;;;;;;;;;;;;;21.52;25.79;96874.78;10408141;28;2077;-72
2022/01/21 11:20:07;;;;;;;;;;;;;;;21.52;26.15;96873.97;10389638;28;1953;-71
2022/01/21 11:25:07;;;;;;;;;;;;;;;21.51;26.02;96867.94;10410804;28;1957;-72
2022/01/21 11:30:08;;;;;;;;;;;;;;;21.53;25.82;96871.13;10413939;28;1980;-72
2022/01/21 11:35:08;;;;;;;;;;;;;;;21.52;26.07;96858.97;10405180;28;1989;-72
2022/01/21 11:40:09;;;;;;;;;;;;;;;21.55;26.02;96849.75;10394719;28;1965;-71
2022/01/21 11:45:30;;;;;;;;;;;;;;;21.64;25.93;96848.22;10418753;28;2118;-73
2022/01/21 11:50:30;;;;;;;;;;;;;;;21.68;25.79;96850.09;10405592;28;1999;-70
2022/01/21 11:55:36;;;;;;;;;;;;;;;21.66;25.89;96839.00;10417811;28;1925;-70
2022/01/21 12:00:37;;;;;;;;;;;;;;;21.67;26.13;96829.25;10413146;28;1902;-71
2022/01/21 12:05:37;;;;;;;;;;;;;;;21.72;25.80;96816.09;10413593;28;1874;-69
2022/01/21 12:10:38;;;;;;;;;;;;;;;21.73;25.73;96801.84;10419847;28;1828;-71
2022/01/21 12:15:57;;;;;;;;;;;;;;;21.74;25.84;96790.25;10399036;28;1804;-70
2022/01/21 12:21:00;;;;;;;;;;;;;;;21.78;25.78;96792.09;10418076;28;1914;-72
2022/01/21 12:26:19;;;;;;;;;;;;;;;21.77;25.68;96797.63;10407039;28;1813;-72
2022/01/21 12:31:53;;;;;;;;;;;;;;;21.77;25.46;96808.19;10421594;28;1785;-72
2022/01/21 12:36:57;;;;;;;;;;;;;;;21.75;25.61;96797.91;10414885;28;1828;-73
2022/01/21 12:41:57;;;;;;;;;;;;;;;21.76;25.71;96798.69;10378552;28;1942;-73
2022/01/21 12:46:58;;;;;;;;;;;;;;;21.72;25.63;96789.72;10402288;28;1827;-73
2022/01/21 12:57:02;;;;;;;;;;;;;;;21.77;25.74;96787.09;10416285;28;1838;-72
2022/01/21 13:02:05;;;;;;;;;;;;;;;21.77;25.41;96787.88;10412332;28;1910;-73
2022/01/21 13:07:06;;;;;;;;;;;;;;;21.77;25.27;96781.81;10418268;28;1868;-72
2022/01/21 13:12:11;;;;;;;;;;;;;;;21.80;25.53;96789.22;10415543;28;1882;-73
2022/01/21 13:17:13;;;;;;;;;;;;;;;21.82;25.30;96779.22;10410470;28;1907;-73
2022/01/21 13:22:17;;;;;;;;;;;;;;;21.83;25.29;96772.88;10387480;28;3103;-73
2022/01/21 13:27:18;;;;;;;;;;;;;;;21.90;25.25;96785.84;10413063;28;1819;-73
2022/01/21 13:32:22;;;;;;;;;;;;;;;22.00;25.09;96773.50;10409823;28;1923;-73
2022/01/21 13:37:22;;;;;;;;;;;;;;;21.98;25.31;96778.25;10416791;28;1865;-73
2022/01/21 13:42:25;;;;;;;;;;;;;;;22.01;25.30;96783.00;10416860;28;1929;-73
2022/01/21 13:47:36;;;;;;;;;;;;;;;22.03;24.47;96790.69;10414918;28;1962;-73
2022/01/21 13:52:37;;;;;;;;;;;;;;;21.98;24.26;96799.38;10417211;28;1825;-73
2022/01/21 13:57:44;;;;;;;;;;;;;;;22.01;25.12;96798.06;10392237;28;1843;-73
2022/01/21 14:02:47;;;;;;;;;;;;;;;21.97;24.88;96797.75;10394452;28;1902;-72
2022/01/21 14:07:48;;;;;;;;;;;;;;;21.92;24.83;96789.03;10402512;28;1825;-71
2022/01/21 14:12:48;;;;;;;;;;;;;;;21.88;24.71;96792.16;10412185;28;1967;-72
2022/01/21 14:17:48;;;;;;;;;;;;;;;21.85;24.67;96773.44;10408609;28;1908;-72
2022/01/21 14:22:49;;;;;;;;;;;;;;;21.85;24.83;96789.25;10379764;28;1910;-72
2022/01/21 14:27:49;;;;;;;;;;;;;;;21.79;24.80;96800.81;10397389;28;1808;-71
2022/01/21 14:32:50;;;;;;;;;;;;;;;21.79;24.84;96800.81;10410422;28;1712;-71
2022/01/21 14:37:52;;;;;;;;;;;;;;;21.71;24.65;96806.56;10408563;28;1983;-72
2022/01/21 14:43:02;;;;;;;;;;;;;;;21.70;25.00;96815.56;10421375;28;1965;-72
2022/01/21 14:48:13;;;;;;;;;;;;;;;21.71;24.62;96809.22;10406069;28;1910;-70
2022/01/21 14:53:13;;;;;;;;;;;;;;;21.67;24.77;96808.94;10405309;28;1911;-71
2022/01/21 14:58:16;;;;;;;;;;;;;;;21.63;24.75;96807.06;10411556;28;1870;-72
2022/01/21 15:03:17;;;;;;;;;;;;;;;21.69;24.84;96812.13;10389440;28;1913;-71
2022/01/21 15:08:30;;;;;;;;;;;;;;;21.63;24.89;96813.13;10409204;28;1858;-72
2022/01/21 15:18:54;;;;;;;;;;;;;;;21.62;24.88;96821.28;10411446;28;1779;-71
2022/01/21 15:23:54;;;;;;;;;;;;;;;21.62;24.95;96821.28;10417127;28;1910;-72
2022/01/21 15:29:02;;;;;;;;;;;;;;;21.57;24.81;96802.81;10416871;28;1829;-72
2022/01/21 15:34:04;;;;;;;;;;;;;;;21.57;24.30;96810.72;10483860;22;1787;-49
2022/01/21 15:39:05;;;;;;;;;;;;;;;21.59;24.63;96816.53;10505887;28;1684;-44
2022/01/21 15:44:05;;;;;;;;;;;;;;;21.58;24.66;96817.56;10508335;28;1973;-46
2022/01/21 15:49:07;;;;;;;;;;;;;;;21.55;24.51;96816.25;10509137;28;1803;-43
2022/01/21 15:54:07;;;;;;;;;;;;;;;21.56;24.58;96838.94;10511019;28;1835;-41
2022/01/21 15:59:08;;;;;;;;;;;;;;;21.56;24.51;96843.41;10506880;28;1795;-42
2022/01/21 16:04:08;;;;;;;;;;;;;;;21.57;24.20;96847.66;10511251;28;1914;-46
2022/01/21 16:09:08;;;;;;;;;;;;;;;21.55;24.46;96852.38;10511720;28;1862;-43
2022/01/21 16:14:09;;;;;;;;;;;;;;;21.54;24.37;96848.94;10525411;28;1804;-40
2022/01/21 16:19:09;;;;;;;;;;;;;;;21.53;24.62;96859.75;10509301;28;1839;-40
2022/01/21 16:24:10;;;;;;;;;;;;;;;21.52;24.49;96858.16;10514765;28;1914;-43
2022/01/21 16:29:10;;;;;;;;;;;;;;;21.52;24.72;96853.69;10507001;28;1846;-45
2022/01/21 16:34:11;;;;;;;;;;;;;;;21.57;24.39;96859.00;10508288;28;1854;-44
2022/01/21 16:39:11;;;;;;;;;;;;;;;21.54;24.85;96856.88;10506998;28;1823;-42
2022/01/21 16:44:12;;;;;;;;;;;;;;;21.56;24.44;96857.41;10506975;28;1909;-43
2022/01/21 16:49:12;;;;;;;;;;;;;;;21.55;24.83;96861.09;10504535;28;1807;-44
2022/01/21 16:54:13;;;;;;;;;;;;;;;21.56;25.06;96860.03;10507046;28;1835;-46
2022/01/21 16:59:13;;;;;;;;;;;;;;;21.55;25.06;96857.66;10494717;28;1855;-43
2022/01/21 17:04:14;;;;;;;;;;;;;;;21.53;24.96;96852.66;10512233;28;1918;-43
2022/01/21 17:09:14;;;;;;;;;;;;;;;21.50;25.11;96854.97;10509810;28;1780;-43
2022/01/21 17:14:14;;;;;;;;;;;;;;;21.46;25.48;96851.25;10511461;28;1808;-45
2022/01/21 17:19:15;;;;;;;;;;;;;;;21.48;25.12;96852.59;10509864;28;2192;-43
2022/01/21 17:24:17;;;;;;;;;;;;;;;21.46;25.50;96844.13;10505244;28;1974;-44
2022/01/21 17:29:17;;;;;;;;;;;;;;;21.46;25.48;96853.88;10505749;28;1807;-40
2022/01/21 17:34:18;;;;;;;;;;;;;;;21.42;25.43;96858.09;10515263;28;1823;-39
2022/01/21 17:39:18;;;;;;;;;;;;;;;21.42;25.46;96876.53;10506451;28;1866;-40
2022/01/21 17:44:20;;;;;;;;;;;;;;;21.41;25.51;96880.25;10507975;28;1985;-42
2022/01/21 17:49:21;;;;;;;;;;;;;;;21.39;25.42;96877.84;10509233;28;1831;-39
2022/01/21 17:54:22;;;;;;;;;;;;;;;21.37;25.45;96885.22;10511331;28;2014;-39
2022/01/21 17:59:22;;;;;;;;;;;;;;;21.38;25.52;96888.66;10508851;28;1891;-43
2022/01/21 18:04:23;;;;;;;;;;;;;;;21.35;25.20;96889.16;10506992;28;1985;-43
2022/01/21 18:09:32;;;;;;;;;;;;;;;21.37;25.29;96889.72;10507142;28;1803;-42
2022/01/21 18:14:32;;;;;;;;;;;;;;;21.37;25.47;96892.34;10506595;28;1791;-40
2022/01/21 18:24:43;;;;;;;;;;;;;;;21.33;25.01;96904.44;10507716;28;1994;-43
2022/01/21 18:29:44;;;;;;;;;;;;;;;21.31;25.27;96911.81;10503969;28;1799;-40
2022/01/21 18:34:46;;;;;;;;;;;;;;;21.25;24.46;96910.16;10508005;28;2060;-42
2022/01/21 18:39:47;;;;;;;;;;;;;;;21.29;24.73;96913.91;10506975;28;1829;-41
2022/01/21 18:45:01;;;;;;;;;;;;;;;21.25;24.54;96910.16;10485939;28;1914;-38
2022/01/21 18:50:02;;;;;;;;;;;;;;;21.21;24.13;96909.06;10503006;28;1866;-41
2022/01/21 18:55:02;;;;;;;;;;;;;;;21.23;24.09;96906.97;10510795;28;1826;-41
2022/01/21 19:00:05;;;;;;;;;;;;;;;21.33;25.07;96909.72;10512484;28;1732;-39
2022/01/21 19:05:10;;;;;;;;;;;;;;;21.24;24.11;96908.56;10504261;28;2013;-41
2022/01/21 19:10:12;;;;;;;;;;;;;;;21.29;24.62;96909.41;10510646;28;1759;-38
2022/01/21 19:15:12;;;;;;;;;;;;;;;21.37;25.73;96913.44;10508431;28;1854;-39
2022/01/21 19:20:13;;;;;;;;;;;;;;;21.32;24.45;96916.03;10523283;22;3607;-52
2022/01/21 19:25:15;;;;;;;;;;;;;;;21.32;24.47;96916.03;10452055;28;1970;-51
2022/01/21 19:30:19;;;;;;;;;;;;;;;21.31;24.79;96930.28;10439744;28;1812;-49
2022/01/21 19:35:20;;;;;;;;;;;;;;;21.32;25.13;96926.56;10436473;28;1841;-51
2022/01/21 19:40:24;;;;;;;;;;;;;;;21.34;25.05;96925.28;10437557;28;1769;-51
2022/01/21 19:45:28;;;;;;;;;;;;;;;21.29;24.99;96938.41;10432161;28;1910;-51
2022/01/21 19:50:29;;;;;;;;;;;;;;;21.31;24.22;96927.63;10431545;28;1861;-52
2022/01/21 19:55:31;;;;;;;;;;;;;;;21.28;24.49;96922.84;10433801;28;1889;-50
2022/01/21 20:00:49;;;;;;;;;;;;;;;21.30;25.13;96923.38;10435294;28;1902;-54
2022/01/21 20:06:12;;;;;;;;;;;;;;;21.27;24.04;96921.28;10432102;28;1728;-51
2022/01/21 20:11:27;;;;;;;;;;;;;;;21.18;23.80;96920.91;10425337;28;1868;-52
2022/01/21 20:16:28;;;;;;;;;;;;;;;21.17;24.21;96919.31;10432124;28;1872;-52
2022/01/21 20:21:29;;;;;;;;;;;;;;;21.14;24.27;96924.28;10430753;28;1922;-51
2022/01/21 20:26:29;;;;;;;;;;;;;;;21.15;24.28;96926.69;10432374;28;2027;-48
2022/01/21 20:31:30;;;;;;;;;;;;;;;21.15;23.78;96931.94;10432294;28;1884;-52
2022/01/21 20:36:34;;;;;;;;;;;;;;;21.14;24.81;96940.13;10430327;28;1828;-50
2022/01/21 20:42:20;;;;;;;;;;;;;;;21.10;23.87;96939.03;10426845;28;2011;-52
2022/01/21 20:46:56;;;;;;;;;;;;;;;21.11;23.31;96943.22;10424435;28;1818;-49
2022/01/21 20:51:57;;;;;;;;;;;;;;;21.15;25.00;96946.97;10428793;28;2584;-51
2022/01/21 20:56:58;;;;;;;;;;;;;;;21.15;24.88;96947.78;10427284;28;1806;-54
2022/01/21 21:01:59;;;;;;;;;;;;;;;21.13;24.51;96949.06;10421476;28;1910;-53
2022/01/21 21:07:00;;;;;;;;;;;;;;;21.16;25.13;96936.19;10421097;28;1828;-53
2022/01/21 21:12:02;;;;;;;;;;;;;;;21.25;25.82;96945.22;10424019;28;1783;-51
2022/01/21 21:27:59;;;;;;;;;;;;;;;21.31;26.43;96931.03;10379603;28;1898;-52
2022/01/21 23:03:05;;;;;;;;;;;;;;;21.23;27.11;96859.50;10423153;28;1986;-52
2022/01/21 23:08:05;;;;;;;;;;;;;;;21.22;28.01;96853.44;10402203;28;1821;-51
2022/01/21 23:13:06;;;;;;;;;;;;;;;21.19;26.90;96842.59;10427971;28;1915;-50
2022/01/21 23:18:12;;;;;;;;;;;;;;;21.17;26.87;96821.75;10436888;28;1846;-52
2022/01/21 23:23:14;;;;;;;;;;;;;;;21.14;27.14;96813.56;10429727;28;2280;-51
2022/01/21 23:28:15;;;;;;;;;;;;;;;21.18;27.17;96801.47;10420733;28;1857;-51
2022/01/21 23:33:17;;;;;;;;;;;;;;;21.16;26.57;96803.56;10421413;28;1806;-52
2022/01/21 23:38:29;;;;;;;;;;;;;;;21.19;27.25;96816.22;10424222;28;1783;-53
2022/01/21 23:43:29;;;;;;;;;;;;;;;21.17;25.34;96807.75;10424919;28;2242;-52
2022/01/21 23:48:30;;;;;;;;;;;;;;;21.19;26.78;96817.03;10429989;28;1818;-52
2022/01/21 23:53:31;;;;;;;;;;;;;;;21.11;25.58;96825.41;10429717;28;2196;-52
2022/01/21 23:58:31;;;;;;;;;;;;;;;21.19;27.13;96809.13;10429087;28;1846;-51
